BEL4CR EPKK-EBBR
Flight info
| Callsign | BEL4CR |
|---|---|
| Flight time | 1h 40m |
| Altitude | 38000 |
| Route | ADADO DCT UTEVO DCT ETUDA DCT BEKVI DCT OKL DCT BALTU DCT OKG DCT MARZA DCT TEKTU DCT TESGA DCT UMUPU T880 BATTY |
| Aircraft | A319/M-SDE3FGHIRWY/LB1 |
Departure
| Time | 2026-05-07 21:44 |
|---|---|
| Airport | Kraków John Paul II International Airport (EPKK) |
Arrival
| Time | 2026-05-07 23:24 |
|---|---|
| Airport | Brussels Airport (EBBR) |
| Time | Latitude | Longitude | Altitude | Speed | Heading |
|---|---|---|---|---|---|
| 2026-05-07 21:20 | 50.07306 | 19.80007 | 800 ft | 0 kts | 168° |
| 2026-05-07 21:31 | 50.07325 | 19.80001 | 800 ft | 4 kts | 168° |
| 2026-05-07 21:32 | 50.07351 | 19.79992 | 800 ft | 4 kts | 168° |
| 2026-05-07 21:32 | 50.07373 | 19.79985 | 800 ft | 4 kts | 182° |
| 2026-05-07 21:32 | 50.07393 | 19.79998 | 800 ft | 4 kts | 244° |
| 2026-05-07 21:32 | 50.07400 | 19.80034 | 800 ft | 2 kts | 258° |
| 2026-05-07 21:33 | 50.07400 | 19.80037 | 800 ft | 0 kts | 258° |
| 2026-05-07 21:36 | 50.07400 | 19.80032 | 800 ft | 1 kts | 258° |
| 2026-05-07 21:36 | 50.07399 | 19.80014 | 800 ft | 2 kts | 273° |
| 2026-05-07 21:36 | 50.07406 | 19.79984 | 800 ft | 3 kts | 300° |
| 2026-05-07 21:36 | 50.07434 | 19.79958 | 800 ft | 6 kts | 341° |
| 2026-05-07 21:37 | 50.07482 | 19.79942 | 800 ft | 8 kts | 348° |
| 2026-05-07 21:37 | 50.07536 | 19.79925 | 800 ft | 8 kts | 348° |
| 2026-05-07 21:37 | 50.07594 | 19.79906 | 800 ft | 9 kts | 348° |
| 2026-05-07 21:37 | 50.07656 | 19.79885 | 800 ft | 8 kts | 348° |
| 2026-05-07 21:38 | 50.07660 | 19.79884 | 800 ft | 0 kts | 348° |
| 2026-05-07 21:38 | 50.07675 | 19.79879 | 800 ft | 4 kts | 347° |
| 2026-05-07 21:38 | 50.07704 | 19.79836 | 800 ft | 8 kts | 289° |
| 2026-05-07 21:38 | 50.07694 | 19.79734 | 800 ft | 12 kts | 257° |
| 2026-05-07 21:39 | 50.07673 | 19.79590 | 800 ft | 16 kts | 257° |
| 2026-05-07 21:39 | 50.07648 | 19.79408 | 800 ft | 19 kts | 258° |
| 2026-05-07 21:39 | 50.07617 | 19.79185 | 800 ft | 23 kts | 258° |
| 2026-05-07 21:39 | 50.07583 | 19.78936 | 800 ft | 23 kts | 257° |
| 2026-05-07 21:40 | 50.07548 | 19.78692 | 800 ft | 23 kts | 257° |
| 2026-05-07 21:40 | 50.07513 | 19.78443 | 800 ft | 24 kts | 258° |
| 2026-05-07 21:40 | 50.07479 | 19.78192 | 800 ft | 24 kts | 258° |
| 2026-05-07 21:40 | 50.07444 | 19.77939 | 800 ft | 24 kts | 257° |
| 2026-05-07 21:41 | 50.07408 | 19.77685 | 800 ft | 24 kts | 258° |
| 2026-05-07 21:41 | 50.07373 | 19.77429 | 800 ft | 24 kts | 258° |
| 2026-05-07 21:41 | 50.07337 | 19.77172 | 800 ft | 24 kts | 258° |
| 2026-05-07 21:41 | 50.07314 | 19.77010 | 800 ft | 14 kts | 257° |
| 2026-05-07 21:42 | 50.07319 | 19.76912 | 800 ft | 8 kts | 310° |
| 2026-05-07 21:42 | 50.07375 | 19.76880 | 800 ft | 11 kts | 347° |
| 2026-05-07 21:42 | 50.07467 | 19.76848 | 801 ft | 15 kts | 348° |
| 2026-05-07 21:42 | 50.07552 | 19.76869 | 802 ft | 12 kts | 57° |
| 2026-05-07 21:43 | 50.07571 | 19.77013 | 802 ft | 18 kts | 79° |
| 2026-05-07 21:43 | 50.07646 | 19.77557 | 800 ft | 89 kts | 77° |
| 2026-05-07 21:43 | 50.07822 | 19.78831 | 803 ft | 149 kts | 78° |
| 2026-05-07 21:43 | 50.08069 | 19.80589 | 1103 ft | 170 kts | 77° |
| 2026-05-07 21:44 | 50.08293 | 19.82372 | 1892 ft | 167 kts | 78° |
| 2026-05-07 21:44 | 50.08445 | 19.83542 | 2367 ft | 166 kts | 77° |
| 2026-05-07 21:44 | 50.08790 | 19.85997 | 2939 ft | 189 kts | 77° |
| 2026-05-07 21:44 | 50.08989 | 19.87395 | 3177 ft | 204 kts | 76° |
| 2026-05-07 21:45 | 50.09314 | 19.89678 | 3473 ft | 228 kts | 76° |
| 2026-05-07 21:45 | 50.09528 | 19.91185 | 3721 ft | 241 kts | 77° |
| 2026-05-07 21:45 | 50.09711 | 19.92485 | 4092 ft | 246 kts | 76° |
| 2026-05-07 21:46 | 50.09836 | 19.95175 | 4916 ft | 255 kts | 99° |
| 2026-05-07 21:46 | 50.09114 | 19.97708 | 5670 ft | 263 kts | 130° |
| 2026-05-07 21:46 | 50.07666 | 19.99351 | 6052 ft | 259 kts | 165° |
| 2026-05-07 21:46 | 50.05936 | 19.99905 | 6966 ft | 257 kts | 173° |
| 2026-05-07 21:47 | 50.04171 | 20.00447 | 7889 ft | 260 kts | 171° |
| 2026-05-07 21:47 | 50.02397 | 20.01031 | 8790 ft | 263 kts | 171° |
| 2026-05-07 21:47 | 50.00593 | 20.01639 | 9700 ft | 267 kts | 171° |
| 2026-05-07 21:47 | 49.98769 | 20.02255 | 10556 ft | 269 kts | 170° |
| 2026-05-07 21:48 | 49.96912 | 20.02666 | 11377 ft | 269 kts | 185° |
| 2026-05-07 21:48 | 49.95129 | 20.01911 | 12200 ft | 267 kts | 211° |
| 2026-05-07 21:48 | 49.93709 | 19.99971 | 12639 ft | 285 kts | 236° |
| 2026-05-07 21:48 | 49.92943 | 19.97008 | 12896 ft | 309 kts | 254° |
| 2026-05-07 21:49 | 49.92366 | 19.93720 | 13283 ft | 326 kts | 254° |
| 2026-05-07 21:49 | 49.91760 | 19.90275 | 13978 ft | 333 kts | 253° |
| 2026-05-07 21:49 | 49.91199 | 19.86765 | 14686 ft | 336 kts | 259° |
| 2026-05-07 21:49 | 49.91132 | 19.83114 | 15397 ft | 342 kts | 274° |
| 2026-05-07 21:50 | 49.91684 | 19.79479 | 16100 ft | 350 kts | 288° |
| 2026-05-07 21:50 | 49.92660 | 19.76035 | 16775 ft | 354 kts | 291° |
| 2026-05-07 21:50 | 49.93679 | 19.72527 | 17468 ft | 358 kts | 291° |
| 2026-05-07 21:50 | 49.94704 | 19.68984 | 18146 ft | 361 kts | 290° |
| 2026-05-07 21:51 | 49.95735 | 19.65401 | 18762 ft | 365 kts | 290° |
| 2026-05-07 21:51 | 49.96775 | 19.61772 | 19315 ft | 369 kts | 290° |
| 2026-05-07 21:51 | 49.97825 | 19.58103 | 19855 ft | 374 kts | 289° |
| 2026-05-07 21:51 | 49.98891 | 19.54383 | 20397 ft | 379 kts | 289° |
| 2026-05-07 21:52 | 49.99963 | 19.50631 | 20932 ft | 384 kts | 289° |
| 2026-05-07 21:52 | 50.01046 | 19.46816 | 21543 ft | 387 kts | 289° |
| 2026-05-07 21:52 | 50.02106 | 19.42960 | 22130 ft | 388 kts | 285° |
| 2026-05-07 21:52 | 50.02820 | 19.38929 | 22693 ft | 386 kts | 275° |
| 2026-05-07 21:53 | 50.03232 | 19.34853 | 23246 ft | 388 kts | 273° |
| 2026-05-07 21:53 | 50.03643 | 19.30682 | 23785 ft | 392 kts | 273° |
| 2026-05-07 21:53 | 50.04061 | 19.26462 | 24241 ft | 395 kts | 273° |
| 2026-05-07 21:53 | 50.04484 | 19.22211 | 24701 ft | 398 kts | 273° |
| 2026-05-07 21:54 | 50.04910 | 19.17936 | 25153 ft | 401 kts | 273° |
| 2026-05-07 21:54 | 50.05117 | 19.13648 | 25585 ft | 397 kts | 264° |
| 2026-05-07 21:54 | 50.05098 | 19.09336 | 26034 ft | 400 kts | 264° |
| 2026-05-07 21:54 | 50.05082 | 19.04996 | 26475 ft | 402 kts | 264° |
| 2026-05-07 21:55 | 50.05068 | 19.00630 | 26956 ft | 404 kts | 264° |
| 2026-05-07 21:55 | 50.05054 | 18.96301 | 27397 ft | 407 kts | 264° |
| 2026-05-07 21:55 | 50.05035 | 18.91885 | 27835 ft | 409 kts | 264° |
| 2026-05-07 21:55 | 50.05012 | 18.87431 | 28266 ft | 412 kts | 264° |
| 2026-05-07 21:56 | 50.04986 | 18.82962 | 28691 ft | 414 kts | 264° |
| 2026-05-07 21:56 | 50.04959 | 18.78452 | 29113 ft | 417 kts | 263° |
| 2026-05-07 21:56 | 50.04930 | 18.73927 | 29541 ft | 419 kts | 263° |
| 2026-05-07 21:56 | 50.04899 | 18.69438 | 29939 ft | 422 kts | 263° |
| 2026-05-07 21:57 | 50.04866 | 18.64858 | 30297 ft | 424 kts | 263° |
| 2026-05-07 21:57 | 50.04830 | 18.60239 | 30622 ft | 427 kts | 263° |
| 2026-05-07 21:57 | 50.04792 | 18.55608 | 30969 ft | 429 kts | 264° |
| 2026-05-07 21:57 | 50.04753 | 18.50951 | 31286 ft | 432 kts | 264° |
| 2026-05-07 21:58 | 50.04712 | 18.46276 | 31574 ft | 434 kts | 264° |
| 2026-05-07 21:58 | 50.04672 | 18.41566 | 31918 ft | 435 kts | 264° |
| 2026-05-07 21:58 | 50.04634 | 18.36847 | 32353 ft | 434 kts | 264° |
| 2026-05-07 21:58 | 50.04592 | 18.32150 | 32783 ft | 434 kts | 264° |
| 2026-05-07 21:59 | 50.04548 | 18.27460 | 33211 ft | 433 kts | 264° |
| 2026-05-07 21:59 | 50.04500 | 18.22830 | 33627 ft | 432 kts | 264° |
| 2026-05-07 21:59 | 50.04446 | 18.18154 | 34048 ft | 432 kts | 264° |
| 2026-05-07 21:59 | 50.04390 | 18.13498 | 34395 ft | 431 kts | 264° |
| 2026-05-07 22:00 | 50.04332 | 18.08836 | 34739 ft | 430 kts | 264° |
| 2026-05-07 22:00 | 50.04272 | 18.04173 | 35083 ft | 429 kts | 264° |
| 2026-05-07 22:00 | 50.04212 | 17.99521 | 35415 ft | 428 kts | 264° |
| 2026-05-07 22:00 | 50.04150 | 17.94906 | 35736 ft | 427 kts | 264° |
| 2026-05-07 22:01 | 50.04087 | 17.90276 | 36045 ft | 426 kts | 265° |
| 2026-05-07 22:01 | 50.04023 | 17.85731 | 36345 ft | 425 kts | 265° |
| 2026-05-07 22:01 | 50.03957 | 17.81145 | 36642 ft | 425 kts | 265° |
| 2026-05-07 22:01 | 50.03890 | 17.76543 | 36933 ft | 424 kts | 265° |
| 2026-05-07 22:02 | 50.03821 | 17.71962 | 37216 ft | 423 kts | 265° |
| 2026-05-07 22:02 | 50.03749 | 17.67403 | 37495 ft | 422 kts | 265° |
| 2026-05-07 22:02 | 50.03675 | 17.62840 | 37765 ft | 421 kts | 265° |
| 2026-05-07 22:02 | 50.03601 | 17.58270 | 38023 ft | 421 kts | 265° |
| 2026-05-07 22:03 | 50.03453 | 17.49178 | 38070 ft | 419 kts | 265° |
| 2026-05-07 22:03 | 50.03297 | 17.40182 | 38067 ft | 418 kts | 265° |
| 2026-05-07 22:04 | 50.03132 | 17.31133 | 38059 ft | 418 kts | 265° |
| 2026-05-07 22:04 | 50.02956 | 17.22083 | 38062 ft | 417 kts | 265° |
| 2026-05-07 22:05 | 50.02774 | 17.13060 | 38064 ft | 417 kts | 265° |
| 2026-05-07 22:05 | 50.02585 | 17.04026 | 38064 ft | 418 kts | 265° |
| 2026-05-07 22:06 | 50.02390 | 16.95022 | 38051 ft | 419 kts | 265° |
| 2026-05-07 22:06 | 50.02180 | 16.85948 | 38052 ft | 420 kts | 265° |
| 2026-05-07 22:07 | 50.01966 | 16.76833 | 38056 ft | 421 kts | 265° |
| 2026-05-07 22:07 | 50.01750 | 16.67750 | 38061 ft | 421 kts | 265° |
| 2026-05-07 22:08 | 50.01534 | 16.58701 | 38060 ft | 421 kts | 265° |
| 2026-05-07 22:08 | 50.01379 | 16.49572 | 38042 ft | 424 kts | 271° |
| 2026-05-07 22:09 | 50.01756 | 16.40371 | 38043 ft | 426 kts | 271° |
| 2026-05-07 22:09 | 50.02125 | 16.31186 | 38038 ft | 426 kts | 271° |
| 2026-05-07 22:10 | 50.02482 | 16.22024 | 38045 ft | 427 kts | 271° |
| 2026-05-07 22:10 | 50.02841 | 16.12810 | 38076 ft | 427 kts | 271° |
| 2026-05-07 22:11 | 50.03187 | 16.03599 | 38073 ft | 426 kts | 271° |
| 2026-05-07 22:11 | 50.03530 | 15.94392 | 38066 ft | 425 kts | 271° |
| 2026-05-07 22:12 | 50.03863 | 15.85190 | 38079 ft | 425 kts | 271° |
| 2026-05-07 22:12 | 50.04184 | 15.76013 | 38065 ft | 424 kts | 271° |
| 2026-05-07 22:13 | 50.04501 | 15.66892 | 38088 ft | 424 kts | 271° |
| 2026-05-07 22:13 | 50.04811 | 15.57696 | 38081 ft | 424 kts | 271° |
| 2026-05-07 22:14 | 50.05112 | 15.48532 | 38070 ft | 424 kts | 271° |
| 2026-05-07 22:14 | 50.05405 | 15.39419 | 38072 ft | 424 kts | 271° |
| 2026-05-07 22:15 | 50.05691 | 15.30257 | 38073 ft | 424 kts | 271° |
| 2026-05-07 22:15 | 50.05973 | 15.21109 | 38077 ft | 424 kts | 271° |
| 2026-05-07 22:16 | 50.06250 | 15.11942 | 38079 ft | 424 kts | 271° |
| 2026-05-07 22:16 | 50.06516 | 15.02765 | 38075 ft | 424 kts | 271° |
| 2026-05-07 22:17 | 50.06767 | 14.93632 | 38082 ft | 424 kts | 271° |
| 2026-05-07 22:17 | 50.07014 | 14.84444 | 38085 ft | 425 kts | 271° |
| 2026-05-07 22:18 | 50.07388 | 14.70645 | 38101 ft | 425 kts | 271° |
| 2026-05-07 22:19 | 50.07803 | 14.61507 | 38098 ft | 425 kts | 273° |
| 2026-05-07 22:19 | 50.08321 | 14.52325 | 38096 ft | 425 kts | 273° |
| 2026-05-07 22:20 | 50.08812 | 14.43139 | 38095 ft | 425 kts | 273° |
| 2026-05-07 22:20 | 50.09250 | 14.33936 | 38094 ft | 425 kts | 272° |
| 2026-05-07 22:21 | 50.09641 | 14.24792 | 38106 ft | 425 kts | 271° |
| 2026-05-07 22:21 | 50.09696 | 14.15594 | 38103 ft | 424 kts | 268° |
| 2026-05-07 22:22 | 50.09568 | 14.06394 | 38098 ft | 424 kts | 268° |
| 2026-05-07 22:22 | 50.09463 | 13.97222 | 38089 ft | 424 kts | 268° |
| 2026-05-07 22:23 | 50.09410 | 13.88023 | 38088 ft | 424 kts | 268° |
| 2026-05-07 22:23 | 50.09359 | 13.78846 | 38094 ft | 424 kts | 269° |
| 2026-05-07 22:24 | 50.09298 | 13.69660 | 38092 ft | 424 kts | 268° |
| 2026-05-07 22:24 | 50.09223 | 13.60533 | 38090 ft | 424 kts | 268° |
| 2026-05-07 22:25 | 50.09145 | 13.51348 | 38089 ft | 424 kts | 268° |
| 2026-05-07 22:25 | 50.09058 | 13.42164 | 38079 ft | 424 kts | 268° |
| 2026-05-07 22:26 | 50.08959 | 13.32989 | 38084 ft | 423 kts | 268° |
| 2026-05-07 22:26 | 50.08797 | 13.23824 | 38088 ft | 423 kts | 267° |
| 2026-05-07 22:27 | 50.08557 | 13.14718 | 38089 ft | 423 kts | 266° |
| 2026-05-07 22:27 | 50.08309 | 13.05553 | 38095 ft | 423 kts | 267° |
| 2026-05-07 22:28 | 50.08073 | 12.96389 | 38091 ft | 423 kts | 267° |
| 2026-05-07 22:28 | 50.07849 | 12.87276 | 38105 ft | 423 kts | 267° |
| 2026-05-07 22:29 | 50.07610 | 12.78179 | 38096 ft | 423 kts | 267° |
| 2026-05-07 22:29 | 50.07352 | 12.69021 | 38096 ft | 423 kts | 267° |
| 2026-05-07 22:30 | 50.07091 | 12.59886 | 38095 ft | 423 kts | 267° |
| 2026-05-07 22:30 | 50.06826 | 12.50728 | 38101 ft | 423 kts | 267° |
| 2026-05-07 22:31 | 50.06556 | 12.41632 | 38103 ft | 423 kts | 268° |
| 2026-05-07 22:31 | 50.06864 | 12.32493 | 38105 ft | 423 kts | 273° |
| 2026-05-07 22:32 | 50.07268 | 12.23347 | 38106 ft | 423 kts | 273° |
| 2026-05-07 22:32 | 50.07655 | 12.14215 | 38110 ft | 422 kts | 273° |
| 2026-05-07 22:33 | 50.07975 | 12.06626 | 38113 ft | 422 kts | 273° |
| 2026-05-07 22:33 | 50.08412 | 11.96002 | 38114 ft | 422 kts | 273° |
| 2026-05-07 22:34 | 50.08719 | 11.88401 | 38128 ft | 422 kts | 273° |
| 2026-05-07 22:34 | 50.09081 | 11.79256 | 38119 ft | 422 kts | 273° |
| 2026-05-07 22:35 | 50.09431 | 11.70172 | 38115 ft | 422 kts | 272° |
| 2026-05-07 22:35 | 50.09773 | 11.61037 | 38117 ft | 422 kts | 272° |
| 2026-05-07 22:36 | 50.10107 | 11.51889 | 38113 ft | 422 kts | 272° |
| 2026-05-07 22:36 | 50.10440 | 11.42766 | 38117 ft | 422 kts | 272° |
| 2026-05-07 22:37 | 50.10772 | 11.33631 | 38117 ft | 422 kts | 272° |
| 2026-05-07 22:37 | 50.11082 | 11.24498 | 38116 ft | 422 kts | 272° |
| 2026-05-07 22:38 | 50.11385 | 11.15416 | 38129 ft | 422 kts | 272° |
| 2026-05-07 22:38 | 50.11690 | 11.06271 | 38117 ft | 421 kts | 272° |
| 2026-05-07 22:39 | 50.11984 | 10.97155 | 38133 ft | 421 kts | 272° |
| 2026-05-07 22:39 | 50.12270 | 10.88049 | 38133 ft | 420 kts | 272° |
| 2026-05-07 22:40 | 50.12549 | 10.78998 | 38128 ft | 420 kts | 272° |
| 2026-05-07 22:40 | 50.12825 | 10.69902 | 38133 ft | 420 kts | 272° |
| 2026-05-07 22:41 | 50.13083 | 10.60809 | 38138 ft | 420 kts | 272° |
| 2026-05-07 22:41 | 50.13339 | 10.51718 | 38141 ft | 419 kts | 272° |
| 2026-05-07 22:42 | 50.13597 | 10.42636 | 38138 ft | 419 kts | 272° |
| 2026-05-07 22:42 | 50.13845 | 10.33611 | 38135 ft | 419 kts | 272° |
| 2026-05-07 22:43 | 50.14476 | 10.24605 | 38138 ft | 419 kts | 284° |
| 2026-05-07 22:43 | 50.16091 | 10.15864 | 38128 ft | 419 kts | 285° |
| 2026-05-07 22:44 | 50.17692 | 10.07089 | 38136 ft | 419 kts | 284° |
| 2026-05-07 22:44 | 50.19273 | 9.98384 | 38140 ft | 419 kts | 284° |
| 2026-05-07 22:45 | 50.20858 | 9.89616 | 38132 ft | 419 kts | 284° |
| 2026-05-07 22:45 | 50.22423 | 9.80891 | 38124 ft | 419 kts | 284° |
| 2026-05-07 22:46 | 50.23998 | 9.72130 | 38117 ft | 419 kts | 284° |
| 2026-05-07 22:46 | 50.25564 | 9.63360 | 38126 ft | 419 kts | 284° |
| 2026-05-07 22:47 | 50.27122 | 9.54566 | 38112 ft | 419 kts | 284° |
| 2026-05-07 22:47 | 50.28671 | 9.45775 | 38111 ft | 419 kts | 284° |
| 2026-05-07 22:48 | 50.30206 | 9.37036 | 38118 ft | 419 kts | 284° |
| 2026-05-07 22:48 | 50.31751 | 9.28232 | 38119 ft | 419 kts | 284° |
| 2026-05-07 22:49 | 50.33286 | 9.19422 | 38133 ft | 419 kts | 284° |
| 2026-05-07 22:49 | 50.34826 | 9.10611 | 38133 ft | 419 kts | 285° |
| 2026-05-07 22:50 | 50.36552 | 9.01874 | 38132 ft | 420 kts | 287° |
| 2026-05-07 22:50 | 50.38347 | 8.93172 | 38131 ft | 419 kts | 286° |
| 2026-05-07 22:51 | 50.40092 | 8.84507 | 38131 ft | 419 kts | 286° |
| 2026-05-07 22:51 | 50.41805 | 8.75765 | 38132 ft | 419 kts | 286° |
| 2026-05-07 22:52 | 50.43504 | 8.67012 | 38128 ft | 419 kts | 285° |
| 2026-05-07 22:52 | 50.44884 | 8.58146 | 38128 ft | 418 kts | 278° |
| 2026-05-07 22:53 | 50.45791 | 8.49117 | 38129 ft | 418 kts | 278° |
| 2026-05-07 22:53 | 50.46680 | 8.40095 | 38130 ft | 418 kts | 278° |
| 2026-05-07 22:54 | 50.47560 | 8.31121 | 38140 ft | 418 kts | 278° |
| 2026-05-07 22:54 | 50.48445 | 8.22108 | 38138 ft | 418 kts | 278° |
| 2026-05-07 22:55 | 50.49327 | 8.13069 | 38130 ft | 418 kts | 278° |
| 2026-05-07 22:55 | 50.50198 | 8.04091 | 38128 ft | 418 kts | 277° |
| 2026-05-07 22:56 | 50.51060 | 7.95053 | 38133 ft | 418 kts | 277° |
| 2026-05-07 22:56 | 50.51910 | 7.86017 | 38134 ft | 418 kts | 277° |
| 2026-05-07 22:57 | 50.52757 | 7.76971 | 38135 ft | 417 kts | 277° |
| 2026-05-07 22:57 | 50.53600 | 7.67916 | 38116 ft | 417 kts | 277° |
| 2026-05-07 22:57 | 50.54017 | 7.63406 | 37626 ft | 416 kts | 277° |
| 2026-05-07 22:58 | 50.54422 | 7.58986 | 36985 ft | 415 kts | 277° |
| 2026-05-07 22:58 | 50.54838 | 7.54423 | 36346 ft | 415 kts | 277° |
| 2026-05-07 22:58 | 50.55245 | 7.49956 | 35791 ft | 413 kts | 277° |
| 2026-05-07 22:58 | 50.55647 | 7.45552 | 35361 ft | 408 kts | 277° |
| 2026-05-07 22:59 | 50.55895 | 7.41125 | 34938 ft | 403 kts | 270° |
| 2026-05-07 22:59 | 50.55932 | 7.36751 | 34509 ft | 398 kts | 270° |
| 2026-05-07 22:59 | 50.55963 | 7.32431 | 34088 ft | 394 kts | 270° |
| 2026-05-07 22:59 | 50.55991 | 7.28129 | 33585 ft | 390 kts | 270° |
| 2026-05-07 23:00 | 50.56016 | 7.23873 | 33069 ft | 387 kts | 270° |
| 2026-05-07 23:00 | 50.56041 | 7.19667 | 32564 ft | 384 kts | 270° |
| 2026-05-07 23:00 | 50.56055 | 7.15454 | 31690 ft | 389 kts | 269° |
| 2026-05-07 23:00 | 50.56004 | 7.11165 | 31014 ft | 391 kts | 268° |
| 2026-05-07 23:01 | 50.55906 | 7.06915 | 30579 ft | 386 kts | 267° |
| 2026-05-07 23:01 | 50.55793 | 7.02782 | 30128 ft | 382 kts | 267° |
| 2026-05-07 23:01 | 50.55677 | 6.98620 | 29638 ft | 378 kts | 267° |
| 2026-05-07 23:01 | 50.55567 | 6.94524 | 29208 ft | 373 kts | 268° |
| 2026-05-07 23:02 | 50.55465 | 6.90475 | 28790 ft | 368 kts | 268° |
| 2026-05-07 23:02 | 50.55371 | 6.86471 | 28371 ft | 364 kts | 268° |
| 2026-05-07 23:02 | 50.55280 | 6.82508 | 27967 ft | 361 kts | 268° |
| 2026-05-07 23:02 | 50.55188 | 6.78575 | 27551 ft | 357 kts | 268° |
| 2026-05-07 23:03 | 50.55095 | 6.74686 | 27134 ft | 354 kts | 268° |
| 2026-05-07 23:03 | 50.55005 | 6.70840 | 26724 ft | 351 kts | 269° |
| 2026-05-07 23:03 | 50.55200 | 6.67032 | 26310 ft | 348 kts | 279° |
| 2026-05-07 23:03 | 50.55659 | 6.63303 | 25878 ft | 346 kts | 280° |
| 2026-05-07 23:04 | 50.56110 | 6.59603 | 25453 ft | 343 kts | 280° |
| 2026-05-07 23:04 | 50.56551 | 6.55955 | 25020 ft | 341 kts | 280° |
| 2026-05-07 23:04 | 50.56993 | 6.52289 | 24581 ft | 339 kts | 280° |
| 2026-05-07 23:04 | 50.57430 | 6.48650 | 24140 ft | 338 kts | 280° |
| 2026-05-07 23:05 | 50.57864 | 6.45024 | 23697 ft | 336 kts | 280° |
| 2026-05-07 23:05 | 50.58291 | 6.41452 | 23214 ft | 335 kts | 280° |
| 2026-05-07 23:05 | 50.58720 | 6.37867 | 22778 ft | 332 kts | 279° |
| 2026-05-07 23:05 | 50.59143 | 6.34312 | 22345 ft | 329 kts | 279° |
| 2026-05-07 23:06 | 50.59561 | 6.30785 | 21930 ft | 326 kts | 279° |
| 2026-05-07 23:06 | 50.59977 | 6.27284 | 21521 ft | 324 kts | 279° |
| 2026-05-07 23:06 | 50.60391 | 6.23800 | 21110 ft | 322 kts | 279° |
| 2026-05-07 23:06 | 50.60802 | 6.20346 | 20708 ft | 320 kts | 279° |
| 2026-05-07 23:07 | 50.61211 | 6.16910 | 20307 ft | 318 kts | 279° |
| 2026-05-07 23:07 | 50.61615 | 6.13487 | 19918 ft | 317 kts | 279° |
| 2026-05-07 23:07 | 50.62008 | 6.10113 | 19517 ft | 316 kts | 279° |
| 2026-05-07 23:07 | 50.62403 | 6.06710 | 19126 ft | 315 kts | 279° |
| 2026-05-07 23:08 | 50.62800 | 6.03299 | 18730 ft | 315 kts | 279° |
| 2026-05-07 23:08 | 50.63194 | 5.99909 | 18333 ft | 314 kts | 279° |
| 2026-05-07 23:08 | 50.63584 | 5.96522 | 17909 ft | 313 kts | 279° |
| 2026-05-07 23:08 | 50.63970 | 5.93149 | 17528 ft | 311 kts | 279° |
| 2026-05-07 23:09 | 50.64353 | 5.89806 | 17153 ft | 309 kts | 279° |
| 2026-05-07 23:09 | 50.64743 | 5.86481 | 16777 ft | 308 kts | 281° |
| 2026-05-07 23:09 | 50.65431 | 5.83294 | 16408 ft | 308 kts | 294° |
| 2026-05-07 23:09 | 50.66406 | 5.80290 | 16048 ft | 307 kts | 296° |
| 2026-05-07 23:10 | 50.67377 | 5.77296 | 15682 ft | 306 kts | 295° |
| 2026-05-07 23:10 | 50.68337 | 5.74320 | 15326 ft | 305 kts | 295° |
| 2026-05-07 23:10 | 50.69281 | 5.71379 | 14973 ft | 304 kts | 295° |
| 2026-05-07 23:10 | 50.70238 | 5.68395 | 14614 ft | 304 kts | 295° |
| 2026-05-07 23:11 | 50.71195 | 5.65406 | 14255 ft | 303 kts | 295° |
| 2026-05-07 23:11 | 50.72145 | 5.62438 | 13890 ft | 303 kts | 295° |
| 2026-05-07 23:11 | 50.73093 | 5.59474 | 13506 ft | 302 kts | 295° |
| 2026-05-07 23:11 | 50.74024 | 5.56564 | 13143 ft | 300 kts | 295° |
| 2026-05-07 23:12 | 50.74964 | 5.53622 | 12785 ft | 298 kts | 295° |
| 2026-05-07 23:12 | 50.75893 | 5.50705 | 12424 ft | 296 kts | 296° |
| 2026-05-07 23:12 | 50.76818 | 5.47801 | 12059 ft | 295 kts | 296° |
| 2026-05-07 23:12 | 50.77738 | 5.44912 | 11699 ft | 293 kts | 296° |
| 2026-05-07 23:13 | 50.78653 | 5.42036 | 11333 ft | 292 kts | 296° |
| 2026-05-07 23:13 | 50.79564 | 5.39173 | 10964 ft | 291 kts | 296° |
| 2026-05-07 23:13 | 50.80473 | 5.36309 | 10595 ft | 290 kts | 296° |
| 2026-05-07 23:13 | 50.81376 | 5.33452 | 10210 ft | 289 kts | 296° |
| 2026-05-07 23:14 | 50.82274 | 5.30614 | 9819 ft | 288 kts | 296° |
| 2026-05-07 23:14 | 50.83154 | 5.27830 | 9428 ft | 286 kts | 296° |
| 2026-05-07 23:14 | 50.84041 | 5.25020 | 9030 ft | 284 kts | 296° |
| 2026-05-07 23:14 | 50.84922 | 5.22225 | 8650 ft | 282 kts | 296° |
| 2026-05-07 23:15 | 50.85790 | 5.19457 | 8263 ft | 280 kts | 295° |
| 2026-05-07 23:15 | 50.86648 | 5.16715 | 7872 ft | 278 kts | 295° |
| 2026-05-07 23:15 | 50.87507 | 5.13967 | 7470 ft | 276 kts | 295° |
| 2026-05-07 23:15 | 50.88349 | 5.11247 | 7068 ft | 274 kts | 295° |
| 2026-05-07 23:16 | 50.89166 | 5.08535 | 6665 ft | 272 kts | 294° |
| 2026-05-07 23:16 | 50.89956 | 5.05868 | 6242 ft | 271 kts | 294° |
| 2026-05-07 23:16 | 50.90754 | 5.03165 | 5829 ft | 269 kts | 294° |
| 2026-05-07 23:16 | 50.91545 | 5.00490 | 5422 ft | 267 kts | 294° |
| 2026-05-07 23:17 | 50.92331 | 4.97835 | 5009 ft | 265 kts | 294° |
| 2026-05-07 23:17 | 50.93114 | 4.95191 | 4569 ft | 265 kts | 294° |
| 2026-05-07 23:17 | 50.93877 | 4.92613 | 4447 ft | 251 kts | 295° |
| 2026-05-07 23:17 | 50.94600 | 4.90175 | 4350 ft | 238 kts | 295° |
| 2026-05-07 23:18 | 50.95284 | 4.87858 | 4253 ft | 226 kts | 294° |
| 2026-05-07 23:18 | 50.95937 | 4.85641 | 4156 ft | 219 kts | 294° |
| 2026-05-07 23:18 | 50.96578 | 4.83464 | 4057 ft | 218 kts | 294° |
| 2026-05-07 23:18 | 50.97221 | 4.81275 | 3966 ft | 218 kts | 294° |
| 2026-05-07 23:19 | 50.97854 | 4.79129 | 3874 ft | 210 kts | 295° |
| 2026-05-07 23:19 | 50.98369 | 4.77016 | 3768 ft | 201 kts | 279° |
| 2026-05-07 23:19 | 50.98282 | 4.74846 | 3539 ft | 198 kts | 248° |
| 2026-05-07 23:19 | 50.97738 | 4.72888 | 3322 ft | 194 kts | 244° |
| 2026-05-07 23:20 | 50.97180 | 4.70942 | 3019 ft | 194 kts | 244° |
| 2026-05-07 23:20 | 50.96626 | 4.69005 | 2751 ft | 190 kts | 243° |
| 2026-05-07 23:20 | 50.96087 | 4.67119 | 2495 ft | 185 kts | 244° |
| 2026-05-07 23:20 | 50.95563 | 4.65288 | 2281 ft | 179 kts | 244° |
| 2026-05-07 23:21 | 50.95050 | 4.63500 | 2020 ft | 177 kts | 244° |
| 2026-05-07 23:21 | 50.94550 | 4.61753 | 1772 ft | 169 kts | 244° |
| 2026-05-07 23:21 | 50.94076 | 4.60101 | 1544 ft | 160 kts | 244° |
| 2026-05-07 23:21 | 50.93625 | 4.58532 | 1328 ft | 153 kts | 244° |
| 2026-05-07 23:22 | 50.93334 | 4.57522 | 1157 ft | 151 kts | 244° |
| 2026-05-07 23:22 | 50.92902 | 4.56027 | 905 ft | 147 kts | 245° |
| 2026-05-07 23:22 | 50.92482 | 4.54581 | 734 ft | 142 kts | 245° |
| 2026-05-07 23:22 | 50.92080 | 4.53159 | 579 ft | 141 kts | 245° |
| 2026-05-07 23:23 | 50.91680 | 4.51755 | 404 ft | 139 kts | 245° |
| 2026-05-07 23:23 | 50.91280 | 4.50369 | 220 ft | 138 kts | 245° |
| 2026-05-07 23:23 | 50.90889 | 4.49018 | 119 ft | 127 kts | 245° |
| 2026-05-07 23:23 | 50.90583 | 4.47964 | 121 ft | 81 kts | 245° |
| 2026-05-07 23:24 | 50.90389 | 4.47294 | 123 ft | 61 kts | 245° |
| 2026-05-07 23:24 | 50.90237 | 4.46859 | 127 ft | 36 kts | 217° |
| 2026-05-07 23:24 | 50.90086 | 4.46665 | 128 ft | 14 kts | 214° |
| 2026-05-07 23:24 | 50.90033 | 4.46689 | 129 ft | 8 kts | 84° |
| 2026-05-07 23:25 | 50.90063 | 4.46780 | 129 ft | 10 kts | 65° |
| 2026-05-07 23:25 | 50.90095 | 4.46894 | 126 ft | 13 kts | 65° |
| 2026-05-07 23:25 | 50.90135 | 4.47032 | 127 ft | 15 kts | 65° |
| 2026-05-07 23:25 | 50.90182 | 4.47194 | 123 ft | 17 kts | 65° |
| 2026-05-07 23:26 | 50.90235 | 4.47376 | 122 ft | 20 kts | 65° |
| 2026-05-07 23:26 | 50.90294 | 4.47583 | 118 ft | 21 kts | 66° |
| 2026-05-07 23:26 | 50.90357 | 4.47804 | 118 ft | 22 kts | 66° |
| 2026-05-07 23:26 | 50.90403 | 4.47972 | 120 ft | 10 kts | 75° |
| 2026-05-07 23:27 | 50.90317 | 4.48052 | 118 ft | 1 kts | 160° |
| 2026-05-07 23:27 | 50.90310 | 4.48056 | 119 ft | 1 kts | 159° |
| 2026-05-07 23:28 | 50.90296 | 4.48066 | 120 ft | 4 kts | 155° |
| 2026-05-07 23:28 | 50.90275 | 4.48082 | 120 ft | 2 kts | 154° |
| 2026-05-07 23:28 | 50.90271 | 4.48085 | 120 ft | 0 kts | 154° |
| 2026-05-07 23:28 | 50.90265 | 4.48090 | 120 ft | 0 kts | 155° |